Time;durP1;ratioP1;P1;durP2;ratioP2;P2;SDS_P1;SDS_P2;PMS_P1;PMS_P2;Temp;Humidity;BMP_temperature;BMP_pressure;BME280_temperature;BME280_humidity;BME280_pressure;Samples;Min_cycle;Max_cycle;Signal;HPM_P1;HPM_P2
2021/09/17 00:00:08;;;;;;;9.13;7.10;;;;;;;;;;5031697;28;20433;-50
2021/09/17 00:02:34;;;;;;;8.57;7.77;;;;;;;;;;5031676;28;20451;-50
2021/09/17 00:05:00;;;;;;;8.60;6.97;;;;;;;;;;5031414;28;20795;-49
2021/09/17 00:07:26;;;;;;;7.13;6.43;;;;;;;;;;5031578;28;20454;-49
2021/09/17 00:09:52;;;;;;;8.10;7.30;;;;;;;;;;5031534;28;20459;-51
2021/09/17 00:12:18;;;;;;;8.30;7.10;;;;;;;;;;5031455;28;20458;-51
2021/09/17 00:14:44;;;;;;;7.70;6.90;;;;;;;;;;5031365;28;20397;-50
2021/09/17 00:17:10;;;;;;;7.50;6.70;;;;;;;;;;5031546;28;20462;-49
2021/09/17 00:19:36;;;;;;;9.03;7.20;;;;;;;;;;5031437;28;20419;-51
2021/09/17 00:22:02;;;;;;;8.70;6.93;;;;;;;;;;5031909;28;20410;-49
2021/09/17 00:24:28;;;;;;;8.53;7.40;;;;;;;;;;5031267;28;20888;-50
2021/09/17 00:26:54;;;;;;;8.50;7.50;;;;;;;;;;5031332;28;20430;-50
2021/09/17 00:29:20;;;;;;;10.57;9.47;;;;;;;;;;5033474;28;20462;-48
2021/09/17 00:31:46;;;;;;;9.57;7.90;;;;;;;;;;5035254;28;20490;-50
2021/09/17 00:34:12;;;;;;;9.33;8.43;;;;;;;;;;5035032;28;20384;-50
2021/09/17 00:36:38;;;;;;;12.67;9.60;;;;;;;;;;5035166;28;20391;-50
2021/09/17 00:39:04;;;;;;;13.93;9.17;;;;;;;;;;5035195;28;20832;-50
2021/09/17 00:41:30;;;;;;;10.90;9.90;;;;;;;;;;5034997;28;20461;-50
2021/09/17 00:43:56;;;;;;;11.87;9.80;;;;;;;;;;5035072;28;20416;-51
2021/09/17 00:46:22;;;;;;;11.90;10.70;;;;;;;;;;5034758;28;20537;-50
2021/09/17 00:48:48;;;;;;;14.40;9.57;;;;;;;;;;5034846;28;20801;-50
2021/09/17 00:51:14;;;;;;;15.23;10.73;;;;;;;;;;5034903;28;20411;-50
2021/09/17 00:53:40;;;;;;;11.17;9.67;;;;;;;;;;5034917;28;20411;-49
2021/09/17 00:56:06;;;;;;;13.37;10.23;;;;;;;;;;5034481;28;20423;-50
2021/09/17 00:58:32;;;;;;;12.30;11.00;;;;;;;;;;5034804;28;20520;-49
2021/09/17 01:00:59;;;;;;;17.63;11.57;;;;;;;;;;5034337;28;20416;-50
2021/09/17 01:03:25;;;;;;;18.13;12.43;;;;;;;;;;5034143;28;20549;-50
2021/09/17 01:05:51;;;;;;;15.07;12.50;;;;;;;;;;5033912;28;20411;-49
2021/09/17 01:08:17;;;;;;;20.37;13.20;;;;;;;;;;5034406;28;20405;-48
2021/09/17 01:10:43;;;;;;;13.70;12.10;;;;;;;;;;5034424;28;20920;-49
2021/09/17 01:13:09;;;;;;;15.57;12.70;;;;;;;;;;5034454;28;20398;-50
2021/09/17 01:15:35;;;;;;;13.80;12.30;;;;;;;;;;5034182;28;20479;-50
2021/09/17 01:18:01;;;;;;;20.83;13.27;;;;;;;;;;5034463;28;20433;-49
2021/09/17 01:20:27;;;;;;;20.80;14.50;;;;;;;;;;5034413;28;20453;-51
2021/09/17 01:22:53;;;;;;;14.60;12.80;;;;;;;;;;5034803;28;20400;-50
2021/09/17 01:25:20;;;;;;;17.17;13.50;;;;;;;;;;5033951;28;20900;-51
2021/09/17 01:27:47;;;;;;;21.67;15.07;;;;;;;;;;5034526;28;20412;-49
2021/09/17 01:30:15;;;;;;;21.00;15.30;;;;;;;;;;5034148;28;20474;-51
2021/09/17 01:32:41;;;;;;;22.23;15.93;;;;;;;;;;5034148;28;20489;-50
2021/09/17 01:35:09;;;;;;;28.23;20.40;;;;;;;;;;5033985;28;20473;-51
2021/09/17 01:37:34;;;;;;;27.00;19.90;;;;;;;;;;5034002;28;21010;-49
2021/09/17 01:40:00;;;;;;;29.20;21.27;;;;;;;;;;5032844;28;20499;-49
2021/09/17 01:42:26;;;;;;;34.47;19.40;;;;;;;;;;5033919;28;20410;-51
2021/09/17 01:44:52;;;;;;;32.60;20.43;;;;;;;;;;5033834;28;20893;-50
2021/09/17 01:47:18;;;;;;;24.60;20.47;;;;;;;;;;5033826;28;20480;-51
2021/09/17 01:49:44;;;;;;;32.63;22.00;;;;;;;;;;5033738;28;20427;-51
2021/09/17 01:52:10;;;;;;;29.70;21.40;;;;;;;;;;5033705;28;20394;-50
2021/09/17 01:54:36;;;;;;;29.20;19.13;;;;;;;;;;5033628;28;20900;-50
2021/09/17 01:57:03;;;;;;;33.60;24.07;;;;;;;;;;5033631;28;20898;-49
2021/09/17 01:59:29;;;;;;;32.07;23.73;;;;;;;;;;5033687;28;20417;-50
2021/09/17 02:01:54;;;;;;;37.80;21.70;;;;;;;;;;5033637;28;20413;-51
2021/09/17 02:04:20;;;;;;;34.37;21.90;;;;;;;;;;5033381;28;20493;-49
2021/09/17 02:06:46;;;;;;;33.70;23.67;;;;;;;;;;5033391;28;20428;-50
2021/09/17 02:09:13;;;;;;;32.93;22.60;;;;;;;;;;5033277;28;20508;-49
2021/09/17 02:11:39;;;;;;;35.17;22.80;;;;;;;;;;5033553;28;20455;-51
2021/09/17 02:14:05;;;;;;;35.97;23.57;;;;;;;;;;5033334;28;20408;-49
2021/09/17 02:16:32;;;;;;;31.30;22.73;;;;;;;;;;5032898;28;20548;-48
2021/09/17 02:18:58;;;;;;;26.03;19.67;;;;;;;;;;5033310;28;20425;-50
2021/09/17 02:21:24;;;;;;;33.47;22.17;;;;;;;;;;5033076;28;20402;-50
2021/09/17 02:23:50;;;;;;;27.30;19.40;;;;;;;;;;5033267;28;20456;-50
2021/09/17 02:26:18;;;;;;;35.70;20.73;;;;;;;;;;5032872;28;20426;-51
2021/09/17 02:28:44;;;;;;;25.90;20.17;;;;;;;;;;5033010;28;20450;-49
2021/09/17 02:31:10;;;;;;;32.40;19.17;;;;;;;;;;5032942;28;20449;-49
2021/09/17 02:33:36;;;;;;;29.83;20.03;;;;;;;;;;5033017;28;20375;-48
2021/09/17 02:36:03;;;;;;;39.43;22.80;;;;;;;;;;5032600;28;20421;-48
2021/09/17 02:38:29;;;;;;;28.70;19.90;;;;;;;;;;5033114;28;20770;-49
2021/09/17 02:40:56;;;;;;;35.10;21.93;;;;;;;;;;5032781;28;20877;-50
2021/09/17 02:43:22;;;;;;;34.97;24.97;;;;;;;;;;5033100;28;20803;-50
2021/09/17 02:45:48;;;;;;;40.27;25.80;;;;;;;;;;5032503;28;20421;-51
2021/09/17 02:48:14;;;;;;;39.20;25.83;;;;;;;;;;5032678;28;20398;-50
2021/09/17 02:50:40;;;;;;;42.83;27.50;;;;;;;;;;5032648;28;20410;-50
2021/09/17 02:53:07;;;;;;;41.60;27.70;;;;;;;;;;5032289;28;20751;-50
2021/09/17 02:55:34;;;;;;;42.10;29.57;;;;;;;;;;5032466;28;20401;-50
2021/09/17 02:58:03;;;;;;;44.53;29.60;;;;;;;;;;5032635;28;20405;-49
2021/09/17 03:00:29;;;;;;;46.90;31.57;;;;;;;;;;5032464;28;20405;-48
2021/09/17 03:02:56;;;;;;;53.40;30.53;;;;;;;;;;5032393;28;20447;-51
2021/09/17 03:05:22;;;;;;;51.80;32.00;;;;;;;;;;5032081;28;20991;-48
2021/09/17 03:07:48;;;;;;;45.57;29.90;;;;;;;;;;5032433;28;20503;-50
2021/09/17 03:10:15;;;;;;;45.90;30.23;;;;;;;;;;5032281;28;20464;-49
2021/09/17 03:12:41;;;;;;;44.70;27.87;;;;;;;;;;5032329;28;20406;-50
2021/09/17 03:15:08;;;;;;;46.63;31.07;;;;;;;;;;5032033;28;20413;-49
2021/09/17 03:17:34;;;;;;;47.00;30.47;;;;;;;;;;5032014;28;20474;-50
2021/09/17 03:20:02;;;;;;;45.33;31.10;;;;;;;;;;5032237;28;21177;-51
2021/09/17 03:22:28;;;;;;;50.20;30.43;;;;;;;;;;5032369;28;20405;-49
2021/09/17 03:24:54;;;;;;;48.60;30.20;;;;;;;;;;5031944;28;20386;-49
2021/09/17 03:27:21;;;;;;;48.70;31.40;;;;;;;;;;5032074;28;20862;-50
2021/09/17 03:29:47;;;;;;;51.20;32.60;;;;;;;;;;5031950;28;20460;-50
2021/09/17 03:32:14;;;;;;;52.80;33.13;;;;;;;;;;5031828;28;20387;-50
2021/09/17 03:34:41;;;;;;;47.30;30.43;;;;;;;;;;5031997;28;20525;-49
2021/09/17 03:37:06;;;;;;;46.07;29.77;;;;;;;;;;5031824;28;20416;-49
2021/09/17 03:39:32;;;;;;;48.27;32.00;;;;;;;;;;5031926;28;20406;-49
2021/09/17 03:41:58;;;;;;;56.50;33.93;;;;;;;;;;5031812;28;20524;-49
2021/09/17 03:44:25;;;;;;;52.83;33.30;;;;;;;;;;5031664;28;20901;-51
2021/09/17 03:46:51;;;;;;;44.20;30.83;;;;;;;;;;5031789;28;20469;-50
2021/09/17 03:49:17;;;;;;;48.67;30.17;;;;;;;;;;5031702;28;20457;-51
2021/09/17 03:51:43;;;;;;;59.80;33.07;;;;;;;;;;5031782;28;20961;-49
2021/09/17 03:54:09;;;;;;;50.50;32.17;;;;;;;;;;5031839;28;20402;-48
2021/09/17 03:56:35;;;;;;;50.90;32.17;;;;;;;;;;5031474;28;20940;-50
2021/09/17 03:59:01;;;;;;;52.33;31.90;;;;;;;;;;5031653;28;20467;-50
2021/09/17 04:01:27;;;;;;;55.27;34.97;;;;;;;;;;5031564;28;20401;-50
2021/09/17 04:03:53;;;;;;;58.27;35.70;;;;;;;;;;5033370;28;20405;-50
2021/09/17 04:06:19;;;;;;;59.03;33.00;;;;;;;;;;5035474;28;20460;-50
2021/09/17 04:08:45;;;;;;;50.57;32.97;;;;;;;;;;5035615;28;20510;-50
2021/09/17 04:11:11;;;;;;;50.60;32.20;;;;;;;;;;5035586;28;20439;-49
2021/09/17 04:13:36;;;;;;;48.27;31.37;;;;;;;;;;5035603;28;20405;-49
2021/09/17 04:16:02;;;;;;;51.27;34.30;;;;;;;;;;5035159;28;20449;-49
2021/09/17 04:18:28;;;;;;;53.50;34.53;;;;;;;;;;5035563;28;20402;-50
2021/09/17 04:20:57;;;;;;;53.57;33.10;;;;;;;;;;5035442;28;20390;-51
2021/09/17 04:23:23;;;;;;;52.00;33.10;;;;;;;;;;5035543;28;20774;-50
2021/09/17 04:25:52;;;;;;;56.20;34.37;;;;;;;;;;5035527;28;20916;-48
2021/09/17 04:28:18;;;;;;;57.30;34.47;;;;;;;;;;5036060;28;20771;-50
2021/09/17 04:30:44;;;;;;;56.00;33.70;;;;;;;;;;5035195;28;20397;-49
2021/09/17 04:33:14;;;;;;;57.77;35.87;;;;;;;;;;5035327;28;20440;-49
2021/09/17 04:35:41;;;;;;;57.13;34.90;;;;;;;;;;5035264;28;20431;-50
2021/09/17 04:38:07;;;;;;;64.60;36.17;;;;;;;;;;5035778;28;20894;-51
2021/09/17 04:40:33;;;;;;;53.80;33.17;;;;;;;;;;5035125;28;20466;-49
2021/09/17 04:42:59;;;;;;;59.70;36.00;;;;;;;;;;5034897;28;21024;-50
2021/09/17 04:45:25;;;;;;;72.20;35.67;;;;;;;;;;5034998;28;20416;-51
2021/09/17 04:47:51;;;;;;;57.80;33.27;;;;;;;;;;5035097;28;20414;-50
2021/09/17 04:50:25;;;;;;;66.33;33.90;;;;;;;;;;5034817;28;20456;-50
2021/09/17 04:52:51;;;;;;;53.47;34.10;;;;;;;;;;5034997;28;20451;-49
2021/09/17 04:55:17;;;;;;;59.50;35.53;;;;;;;;;;5034627;28;20460;-49
2021/09/17 04:57:43;;;;;;;66.63;34.47;;;;;;;;;;5034688;28;20437;-49
2021/09/17 05:00:09;;;;;;;57.67;34.37;;;;;;;;;;5034805;28;20453;-49
2021/09/17 05:02:37;;;;;;;52.30;33.70;;;;;;;;;;5034977;28;20408;-48
2021/09/17 05:05:05;;;;;;;59.10;33.87;;;;;;;;;;5034471;28;20404;-51
2021/09/17 05:07:35;;;;;;;55.80;34.80;;;;;;;;;;5034658;28;20476;-50
2021/09/17 05:10:01;;;;;;;56.00;34.47;;;;;;;;;;5034565;28;20846;-49
2021/09/17 05:12:27;;;;;;;54.30;33.10;;;;;;;;;;5034484;28;20395;-50
2021/09/17 05:14:58;;;;;;;51.50;33.57;;;;;;;;;;5034156;28;20821;-50
2021/09/17 05:17:24;;;;;;;59.03;33.20;;;;;;;;;;5034460;28;20438;-50
2021/09/17 05:19:50;;;;;;;51.90;33.50;;;;;;;;;;5034446;28;20458;-49
2021/09/17 05:22:16;;;;;;;49.87;32.57;;;;;;;;;;5034285;28;20496;-50
2021/09/17 05:24:42;;;;;;;55.20;33.50;;;;;;;;;;5034102;28;20403;-51
2021/09/17 05:27:12;;;;;;;59.03;33.47;;;;;;;;;;5034443;28;20434;-51
2021/09/17 05:29:40;;;;;;;58.30;32.00;;;;;;;;;;5034291;28;20471;-49
2021/09/17 05:32:06;;;;;;;49.67;30.47;;;;;;;;;;5033015;28;20406;-50
2021/09/17 05:34:32;;;;;;;49.37;31.87;;;;;;;;;;5034040;28;20893;-50
2021/09/17 05:36:58;;;;;;;55.47;31.50;;;;;;;;;;5034087;28;20428;-49
2021/09/17 05:39:24;;;;;;;48.90;29.30;;;;;;;;;;5034020;28;20421;-49
2021/09/17 05:41:50;;;;;;;51.30;31.57;;;;;;;;;;5033965;28;20416;-49
2021/09/17 05:44:16;;;;;;;51.97;32.23;;;;;;;;;;5034018;28;20699;-51
2021/09/17 05:46:42;;;;;;;55.33;30.50;;;;;;;;;;5033713;28;20405;-50
2021/09/17 05:49:08;;;;;;;54.47;31.60;;;;;;;;;;5033844;28;20461;-50
2021/09/17 05:51:34;;;;;;;53.67;32.67;;;;;;;;;;5033865;28;20402;-48
2021/09/17 05:54:00;;;;;;;54.67;33.63;;;;;;;;;;5033726;28;20412;-47
2021/09/17 05:56:30;;;;;;;60.23;34.47;;;;;;;;;;5033534;28;20415;-50
2021/09/17 05:58:56;;;;;;;53.10;34.60;;;;;;;;;;5033661;28;20434;-51
2021/09/17 06:01:22;;;;;;;61.97;35.30;;;;;;;;;;5033571;28;20830;-50
2021/09/17 06:03:48;;;;;;;60.93;34.10;;;;;;;;;;5033658;28;20437;-51
2021/09/17 06:06:17;;;;;;;57.63;34.67;;;;;;;;;;5033286;28;20468;-49
2021/09/17 06:08:43;;;;;;;53.17;32.63;;;;;;;;;;5033442;28;20500;-50
2021/09/17 06:11:09;;;;;;;56.60;35.40;;;;;;;;;;5033320;28;20807;-49
2021/09/17 06:13:35;;;;;;;57.50;31.70;;;;;;;;;;5033425;28;20384;-51
2021/09/17 06:16:01;;;;;;;58.63;34.60;;;;;;;;;;5033018;28;20421;-50
2021/09/17 06:18:26;;;;;;;59.77;33.67;;;;;;;;;;5033349;28;20496;-50
2021/09/17 06:20:52;;;;;;;55.83;34.47;;;;;;;;;;5033192;28;20404;-48
2021/09/17 06:23:18;;;;;;;56.73;34.10;;;;;;;;;;5033175;28;20828;-50
2021/09/17 06:25:45;;;;;;;56.20;31.90;;;;;;;;;;5032771;28;20429;-50
2021/09/17 06:28:11;;;;;;;57.13;32.93;;;;;;;;;;5032863;28;20395;-49
2021/09/17 06:30:37;;;;;;;57.13;33.60;;;;;;;;;;5033014;28;20457;-49
2021/09/17 06:33:03;;;;;;;64.83;32.63;;;;;;;;;;5032984;28;20408;-51
2021/09/17 06:35:29;;;;;;;61.93;34.43;;;;;;;;;;5032738;28;20409;-49
2021/09/17 06:37:55;;;;;;;46.67;31.20;;;;;;;;;;5032974;28;20890;-51
2021/09/17 06:40:23;;;;;;;53.33;34.03;;;;;;;;;;5032827;28;20898;-50
2021/09/17 06:42:49;;;;;;;54.80;33.73;;;;;;;;;;5033019;28;20400;-51
2021/09/17 06:45:15;;;;;;;49.23;32.70;;;;;;;;;;5032586;28;20465;-51
2021/09/17 06:47:48;;;;;;;48.50;30.67;;;;;;;;;;5032903;28;20410;-50
2021/09/17 06:50:15;;;;;;;54.03;33.73;;;;;;;;;;5032668;28;20610;-51
2021/09/17 06:52:47;;;;;;;57.17;31.93;;;;;;;;;;5032689;28;20413;-50
2021/09/17 06:55:13;;;;;;;48.53;32.20;;;;;;;;;;5032539;28;20456;-50
2021/09/17 06:57:49;;;;;;;46.90;31.10;;;;;;;;;;5032785;28;20464;-50
2021/09/17 07:00:16;;;;;;;51.73;31.33;;;;;;;;;;5032492;28;20420;-51
2021/09/17 07:02:43;;;;;;;50.60;32.10;;;;;;;;;;5033180;28;20719;-50
2021/09/17 07:05:12;;;;;;;49.43;32.07;;;;;;;;;;5032181;28;20864;-51
2021/09/17 07:07:39;;;;;;;52.67;31.57;;;;;;;;;;5032422;28;20408;-49
2021/09/17 07:10:06;;;;;;;52.30;31.60;;;;;;;;;;5032329;28;20430;-50
2021/09/17 07:12:32;;;;;;;47.13;31.43;;;;;;;;;;5032299;28;20407;-49
2021/09/17 07:14:58;;;;;;;51.30;32.87;;;;;;;;;;5032112;28;20403;-49
2021/09/17 07:17:24;;;;;;;52.90;31.70;;;;;;;;;;5032035;28;20439;-49
2021/09/17 07:19:50;;;;;;;48.30;31.37;;;;;;;;;;5032213;28;20390;-50
2021/09/17 07:22:16;;;;;;;47.90;31.83;;;;;;;;;;5032524;28;20403;-48
2021/09/17 07:24:43;;;;;;;46.43;30.70;;;;;;;;;;5032655;28;20405;-49
2021/09/17 07:27:08;;;;;;;51.90;30.83;;;;;;;;;;5030996;28;20408;-51
2021/09/17 07:29:35;;;;;;;36.77;25.80;;;;;;;;;;5031968;28;20428;-51
2021/09/17 07:32:01;;;;;;;34.73;23.30;;;;;;;;;;5031989;28;20409;-51
2021/09/17 07:34:28;;;;;;;30.10;21.73;;;;;;;;;;5032614;28;20496;-49
2021/09/17 07:36:54;;;;;;;35.17;22.03;;;;;;;;;;4998299;28;20574;-47
2021/09/17 07:39:20;;;;;;;33.13;22.03;;;;;;;;;;5029226;28;20533;-46
2021/09/17 07:41:46;;;;;;;37.37;26.10;;;;;;;;;;5031723;28;20414;-46
2021/09/17 07:44:12;;;;;;;44.00;25.90;;;;;;;;;;5032354;28;20420;-46
2021/09/17 07:46:38;;;;;;;36.33;26.00;;;;;;;;;;5031675;28;20432;-47
2021/09/17 07:49:04;;;;;;;33.97;24.73;;;;;;;;;;5031741;28;20508;-50
2021/09/17 07:51:32;;;;;;;31.83;23.67;;;;;;;;;;5031838;28;20491;-45
2021/09/17 07:54:01;;;;;;;32.67;24.60;;;;;;;;;;5031796;28;20564;-46
2021/09/17 07:56:27;;;;;;;29.73;21.97;;;;;;;;;;5031531;28;20774;-48
2021/09/17 07:58:54;;;;;;;34.10;24.50;;;;;;;;;;5031662;28;20538;-45
2021/09/17 08:01:21;;;;;;;34.47;23.57;;;;;;;;;;5031945;28;20421;-45
2021/09/17 08:03:47;;;;;;;32.30;23.80;;;;;;;;;;5031833;28;20413;-46
2021/09/17 08:06:14;;;;;;;31.50;22.73;;;;;;;;;;5031596;28;20426;-46
2021/09/17 08:08:41;;;;;;;35.57;22.70;;;;;;;;;;5031565;28;20410;-46
2021/09/17 08:11:07;;;;;;;28.13;23.10;;;;;;;;;;5031625;28;20493;-45
2021/09/17 08:13:33;;;;;;;27.83;21.27;;;;;;;;;;5031633;28;20402;-45
2021/09/17 08:15:59;;;;;;;32.63;21.80;;;;;;;;;;5031420;28;20441;-46
2021/09/17 08:18:25;;;;;;;30.30;23.13;;;;;;;;;;5031624;28;20801;-45
2021/09/17 08:20:53;;;;;;;28.20;21.40;;;;;;;;;;5031457;28;20407;-46
2021/09/17 08:23:20;;;;;;;30.97;20.83;;;;;;;;;;5031573;28;20460;-46
2021/09/17 08:25:58;;;;;;;27.87;21.30;;;;;;;;;;5031380;28;20422;-45
2021/09/17 08:28:26;;;;;;;27.63;20.70;;;;;;;;;;5031591;28;20410;-46
2021/09/17 08:30:52;;;;;;;27.40;19.67;;;;;;;;;;5031406;28;20398;-46
2021/09/17 08:33:19;;;;;;;27.70;22.57;;;;;;;;;;5031501;28;20396;-47
2021/09/17 08:35:45;;;;;;;30.30;21.77;;;;;;;;;;5031222;28;20456;-46
2021/09/17 08:38:10;;;;;;;26.97;21.13;;;;;;;;;;5031396;28;20386;-45
2021/09/17 08:40:36;;;;;;;30.23;22.63;;;;;;;;;;5031300;28;21294;-46
2021/09/17 08:43:02;;;;;;;33.90;21.83;;;;;;;;;;5031369;28;20893;-46
2021/09/17 08:48:32;;;;;;;29.53;21.10;;;;;;;;;;5031338;28;20370;-45
2021/09/17 08:50:58;;;;;;;29.50;22.00;;;;;;;;;;5034338;28;20757;-46
2021/09/17 08:53:25;;;;;;;27.83;20.70;;;;;;;;;;5035072;28;20886;-50
2021/09/17 08:55:51;;;;;;;32.40;21.57;;;;;;;;;;5034878;28;20504;-47
2021/09/17 08:58:17;;;;;;;26.40;17.50;;;;;;;;;;5035031;28;20386;-49
2021/09/17 09:00:43;;;;;;;28.50;18.90;;;;;;;;;;5034952;28;20390;-50
2021/09/17 09:03:10;;;;;;;33.47;22.90;;;;;;;;;;5034692;28;20899;-45
2021/09/17 09:05:38;;;;;;;31.60;21.27;;;;;;;;;;5017389;28;20780;-45
2021/09/17 09:08:04;;;;;;;24.93;18.57;;;;;;;;;;5034776;28;20408;-48
2021/09/17 09:10:31;;;;;;;23.30;18.97;;;;;;;;;;5035699;28;20466;-45
2021/09/17 09:12:58;;;;;;;28.33;21.47;;;;;;;;;;5034646;28;20489;-46
2021/09/17 09:15:32;;;;;;;27.47;19.20;;;;;;;;;;5034292;28;20476;-46
2021/09/17 09:18:12;;;;;;;28.00;20.80;;;;;;;;;;5034603;28;20409;-46
2021/09/17 09:20:47;;;;;;;32.07;20.80;;;;;;;;;;5017409;28;20413;-51
2021/09/17 09:23:18;;;;;;;26.17;20.47;;;;;;;;;;5034364;28;20395;-50
2021/09/17 09:25:56;;;;;;;23.57;17.20;;;;;;;;;;5034336;28;20425;-52
2021/09/17 09:28:27;;;;;;;19.23;15.60;;;;;;;;;;5033241;28;20483;-51
2021/09/17 09:30:54;;;;;;;24.20;18.60;;;;;;;;;;5033469;28;20452;-50
2021/09/17 09:33:31;;;;;;;25.07;19.80;;;;;;;;;;5032828;28;20394;-50
2021/09/17 09:35:58;;;;;;;27.37;20.63;;;;;;;;;;5033924;28;20418;-52
2021/09/17 09:38:35;;;;;;;20.80;16.03;;;;;;;;;;5034000;28;20397;-50
2021/09/17 09:41:02;;;;;;;21.00;17.10;;;;;;;;;;5034122;28;20920;-52
2021/09/17 09:43:29;;;;;;;22.50;14.30;;;;;;;;;;5034081;28;20483;-52
2021/09/17 09:46:16;;;;;;;20.13;15.90;;;;;;;;;;5033859;28;21060;-51
2021/09/17 09:49:04;;;;;;;23.00;16.13;;;;;;;;;;5033804;28;20402;-50
2021/09/17 09:51:34;;;;;;;29.83;16.83;;;;;;;;;;5034002;28;20395;-52
2021/09/17 09:54:00;;;;;;;23.13;16.37;;;;;;;;;;5034137;28;20887;-51
2021/09/17 09:56:27;;;;;;;20.97;15.10;;;;;;;;;;5033633;28;20460;-49
2021/09/17 09:58:53;;;;;;;25.53;16.40;;;;;;;;;;5033922;28;20809;-51
2021/09/17 10:01:21;;;;;;;20.17;15.93;;;;;;;;;;5032769;28;20403;-51
2021/09/17 10:03:47;;;;;;;24.60;14.17;;;;;;;;;;5034256;28;20437;-52
2021/09/17 10:06:14;;;;;;;22.03;13.90;;;;;;;;;;5033454;28;20434;-51
2021/09/17 10:08:41;;;;;;;22.83;15.40;;;;;;;;;;5033511;28;20415;-51
2021/09/17 10:11:07;;;;;;;24.30;14.70;;;;;;;;;;5033543;28;20513;-51
2021/09/17 10:13:33;;;;;;;17.27;13.07;;;;;;;;;;5033540;28;20437;-52
2021/09/17 10:15:59;;;;;;;22.67;14.63;;;;;;;;;;5033153;28;20917;-51
2021/09/17 10:18:25;;;;;;;20.30;13.60;;;;;;;;;;5033439;28;21033;-52
2021/09/17 10:20:51;;;;;;;16.53;12.63;;;;;;;;;;5033417;28;20422;-52
2021/09/17 10:23:44;;;;;;;18.67;13.63;;;;;;;;;;5033336;28;20417;-49
2021/09/17 10:26:12;;;;;;;18.70;12.87;;;;;;;;;;5017432;28;20434;-49
2021/09/17 10:29:16;;;;;;;20.70;13.40;;;;;;;;;;5032440;28;20406;-50
2021/09/17 10:31:43;;;;;;;20.67;15.37;;;;;;;;;;4952962;29;20520;-51
2021/09/17 10:34:32;;;;;;;22.53;15.87;;;;;;;;;;4952282;28;20921;-51
2021/09/17 10:36:59;;;;;;;25.10;15.30;;;;;;;;;;4990629;28;20441;-51
2021/09/17 10:39:25;;;;;;;28.13;16.57;;;;;;;;;;5032111;28;20413;-52
2021/09/17 10:42:10;;;;;;;21.07;16.33;;;;;;;;;;5032324;28;20463;-51
2021/09/17 10:44:55;;;;;;;26.00;17.23;;;;;;;;;;5032904;28;20417;-51
2021/09/17 10:47:39;;;;;;;23.93;15.80;;;;;;;;;;5030460;28;20504;-51
2021/09/17 10:50:06;;;;;;;21.23;16.10;;;;;;;;;;5033885;28;20462;-50
2021/09/17 10:52:39;;;;;;;23.00;16.53;;;;;;;;;;5031204;28;20471;-47
2021/09/17 10:55:06;;;;;;;22.83;14.90;;;;;;;;;;5029980;28;20452;-52
2021/09/17 10:57:32;;;;;;;22.03;14.50;;;;;;;;;;5030810;28;20425;-52
2021/09/17 10:59:59;;;;;;;19.53;14.30;;;;;;;;;;5031722;28;20414;-51
2021/09/17 11:02:41;;;;;;;19.73;13.70;;;;;;;;;;5032446;28;20440;-50
2021/09/17 11:05:14;;;;;;;21.70;14.00;;;;;;;;;;5032285;28;20402;-50
2021/09/17 11:07:40;;;;;;;22.17;14.07;;;;;;;;;;5032570;28;20413;-52
2021/09/17 11:10:07;;;;;;;17.07;12.57;;;;;;;;;;5032823;28;20449;-51
2021/09/17 11:12:38;;;;;;;18.23;11.30;;;;;;;;;;5032120;28;20404;-52
2021/09/17 11:15:06;;;;;;;17.00;11.33;;;;;;;;;;5032133;28;20480;-47
2021/09/17 11:17:38;;;;;;;15.87;11.70;;;;;;;;;;5032157;28;20551;-49
2021/09/17 11:20:05;;;;;;;13.57;9.77;;;;;;;;;;5032237;28;20492;-51
2021/09/17 11:22:31;;;;;;;14.80;10.90;;;;;;;;;;5032060;28;20406;-52
2021/09/17 11:25:04;;;;;;;13.70;11.17;;;;;;;;;;5032067;28;20885;-49
2021/09/17 11:27:30;;;;;;;9.97;8.80;;;;;;;;;;5032089;28;20956;-52
2021/09/17 11:30:04;;;;;;;13.13;8.80;;;;;;;;;;5032016;28;20458;-51
2021/09/17 11:32:30;;;;;;;9.03;7.23;;;;;;;;;;5032079;28;20430;-50
2021/09/17 11:35:04;;;;;;;7.87;6.70;;;;;;;;;;5030791;28;20512;-51
2021/09/17 11:37:30;;;;;;;10.13;6.77;;;;;;;;;;5031589;28;20917;-49
2021/09/17 11:40:03;;;;;;;8.03;6.50;;;;;;;;;;5031993;28;20481;-52
2021/09/17 11:42:29;;;;;;;8.37;7.47;;;;;;;;;;5031884;28;20406;-52
2021/09/17 11:44:54;;;;;;;8.30;7.50;;;;;;;;;;5031827;28;20746;-51
2021/09/17 11:47:27;;;;;;;7.53;6.50;;;;;;;;;;5031713;28;20478;-50
2021/09/17 11:49:57;;;;;;;14.20;12.70;;;;;;;;;;5031568;28;20458;-50
2021/09/17 11:52:23;;;;;;;13.43;8.40;;;;;;;;;;5031975;28;20401;-52
2021/09/17 11:55:00;;;;;;;10.20;8.00;;;;;;;;;;5031795;28;20900;-51
2021/09/17 11:57:33;;;;;;;12.10;8.70;;;;;;;;;;5031468;28;20445;-52
2021/09/17 11:59:59;;;;;;;12.97;10.47;;;;;;;;;;5032219;28;20417;-50
2021/09/17 12:02:26;;;;;;;11.90;9.30;;;;;;;;;;5031422;28;20443;-50
2021/09/17 12:05:02;;;;;;;15.20;11.17;;;;;;;;;;5031645;28;20406;-52
2021/09/17 12:07:29;;;;;;;18.37;14.03;;;;;;;;;;5031442;28;20427;-52
2021/09/17 12:09:55;;;;;;;14.93;10.67;;;;;;;;;;5031541;28;20482;-51
2021/09/17 12:12:31;;;;;;;13.23;11.90;;;;;;;;;;5031543;28;20409;-52
2021/09/17 12:14:57;;;;;;;11.70;10.50;;;;;;;;;;5031478;28;20393;-51
2021/09/17 12:17:24;;;;;;;12.83;9.27;;;;;;;;;;5031178;28;20447;-51
2021/09/17 12:20:00;;;;;;;22.67;11.13;;;;;;;;;;5031340;28;20407;-51
2021/09/17 12:22:31;;;;;;;19.00;13.03;;;;;;;;;;5031174;28;20404;-52
2021/09/17 12:25:07;;;;;;;36.77;19.13;;;;;;;;;;5033050;28;20428;-50
2021/09/17 12:27:34;;;;;;;14.43;12.10;;;;;;;;;;5035197;28;20477;-49
2021/09/17 12:30:20;;;;;;;13.00;9.40;;;;;;;;;;5035399;28;20559;-52
2021/09/17 12:33:04;;;;;;;15.83;13.03;;;;;;;;;;5035191;28;20410;-52
2021/09/17 12:35:30;;;;;;;12.30;11.10;;;;;;;;;;5035108;28;20405;-51
2021/09/17 12:37:56;;;;;;;13.70;9.17;;;;;;;;;;5035274;28;20402;-52
2021/09/17 12:40:26;;;;;;;15.40;11.00;;;;;;;;;;5035242;28;20406;-52
2021/09/17 12:43:02;;;;;;;12.33;9.60;;;;;;;;;;5035165;28;20410;-51
2021/09/17 12:45:29;;;;;;;12.80;9.63;;;;;;;;;;5034926;28;20767;-51
2021/09/17 12:47:56;;;;;;;12.80;11.50;;;;;;;;;;5035047;28;20412;-52
2021/09/17 12:50:33;;;;;;;9.63;8.60;;;;;;;;;;5034902;28;20870;-50
2021/09/17 12:52:59;;;;;;;8.73;7.40;;;;;;;;;;5034949;28;20833;-51
2021/09/17 12:55:31;;;;;;;9.23;7.30;;;;;;;;;;5034699;28;20959;-51
2021/09/17 12:57:59;;;;;;;11.87;10.67;;;;;;;;;;5034874;28;20406;-51
2021/09/17 13:00:26;;;;;;;12.40;10.80;;;;;;;;;;5034847;28;20493;-50
2021/09/17 13:02:55;;;;;;;10.60;9.50;;;;;;;;;;5034664;28;20414;-51
2021/09/17 13:05:21;;;;;;;11.23;10.03;;;;;;;;;;5034536;28;20402;-52
2021/09/17 13:07:48;;;;;;;9.27;8.33;;;;;;;;;;5034720;28;20480;-51
2021/09/17 13:10:14;;;;;;;14.23;8.73;;;;;;;;;;5034763;28;20450;-52
2021/09/17 13:12:40;;;;;;;9.23;6.90;;;;;;;;;;5034621;28;20403;-52
2021/09/17 13:15:07;;;;;;;9.10;7.40;;;;;;;;;;5034522;28;20402;-49
2021/09/17 13:17:33;;;;;;;10.40;6.87;;;;;;;;;;5034249;28;20453;-51
2021/09/17 13:19:59;;;;;;;8.53;6.90;;;;;;;;;;5034538;28;20438;-52
2021/09/17 13:22:25;;;;;;;8.87;7.50;;;;;;;;;;5034429;28;20494;-51
2021/09/17 13:24:51;;;;;;;10.63;7.87;;;;;;;;;;5034718;28;20402;-51
2021/09/17 13:27:17;;;;;;;12.33;7.53;;;;;;;;;;5034121;28;20422;-51
2021/09/17 13:29:43;;;;;;;8.33;7.53;;;;;;;;;;5034096;28;20461;-49
2021/09/17 13:32:09;;;;;;;9.43;8.10;;;;;;;;;;5034293;28;20886;-52
2021/09/17 13:34:35;;;;;;;11.20;7.80;;;;;;;;;;5034370;28;20398;-52
2021/09/17 13:37:01;;;;;;;12.93;11.17;;;;;;;;;;5033919;28;20421;-51
2021/09/17 13:39:28;;;;;;;10.47;8.80;;;;;;;;;;5034273;28;20451;-52
2021/09/17 13:41:54;;;;;;;11.87;9.20;;;;;;;;;;5034040;28;20399;-52
2021/09/17 13:44:20;;;;;;;10.60;9.50;;;;;;;;;;5034460;28;20398;-50
2021/09/17 13:46:46;;;;;;;10.37;9.37;;;;;;;;;;5033765;28;20438;-51
2021/09/17 13:49:12;;;;;;;10.87;9.77;;;;;;;;;;5034011;28;20449;-51
2021/09/17 13:51:38;;;;;;;14.47;10.27;;;;;;;;;;5033924;28;20452;-49
2021/09/17 13:54:04;;;;;;;12.20;11.00;;;;;;;;;;5034152;28;20997;-52
2021/09/17 13:56:30;;;;;;;13.43;11.63;;;;;;;;;;5033683;28;20914;-51
2021/09/17 13:58:56;;;;;;;16.53;11.70;;;;;;;;;;5034269;28;20496;-52
2021/09/17 14:01:22;;;;;;;12.43;11.00;;;;;;;;;;5033607;28;20417;-49
2021/09/17 14:03:48;;;;;;;12.50;11.20;;;;;;;;;;5033822;28;20402;-52
2021/09/17 14:06:14;;;;;;;18.00;13.40;;;;;;;;;;5033488;28;20976;-50
2021/09/17 14:08:40;;;;;;;13.17;11.37;;;;;;;;;;5033645;28;20401;-52
2021/09/17 14:11:05;;;;;;;12.60;11.30;;;;;;;;;;5033560;28;20497;-51
2021/09/17 14:13:31;;;;;;;11.37;10.27;;;;;;;;;;5033514;28;20468;-50
2021/09/17 14:15:57;;;;;;;13.90;9.87;;;;;;;;;;5033164;28;20536;-51
2021/09/17 14:18:23;;;;;;;14.10;10.43;;;;;;;;;;5033493;28;20497;-50
2021/09/17 14:20:49;;;;;;;12.33;10.87;;;;;;;;;;5033469;28;20927;-50
2021/09/17 14:23:15;;;;;;;14.07;12.13;;;;;;;;;;5033395;28;20395;-50
2021/09/17 14:25:41;;;;;;;12.47;11.27;;;;;;;;;;5033119;28;20808;-49